sensor_id;sensor_type;location;lat;lon;timestamp;pressure;altitude;pressure_sealevel;temperature;humidity
17525;BME280;40431;52.198;9.902;2024-03-23T00:55:24;99982.94;;;7.62;100.00
17525;BME280;40431;52.198;9.902;2024-03-23T00:57:57;99989.78;;;7.68;100.00
17525;BME280;40431;52.198;9.902;2024-03-23T01:00:32;99973.50;;;7.69;100.00
17525;BME280;40431;52.198;9.902;2024-03-23T01:03:04;99964.75;;;7.66;100.00
17525;BME280;40431;52.198;9.902;2024-03-23T01:05:42;99965.00;;;7.61;100.00
17525;BME280;40431;52.198;9.902;2024-03-23T01:08:26;99967.44;;;7.66;100.00
17525;BME280;40431;52.198;9.902;2024-03-23T01:10:57;99958.22;;;7.70;100.00
17525;BME280;40431;52.198;9.902;2024-03-23T01:13:37;99952.28;;;7.79;100.00
17525;BME280;40431;52.198;9.902;2024-03-23T01:16:08;99947.47;;;7.84;100.00
17525;BME280;40431;52.198;9.902;2024-03-23T01:18:34;99943.72;;;7.87;100.00
17525;BME280;40431;52.198;9.902;2024-03-23T01:21:00;99941.59;;;7.92;100.00
17525;BME280;40431;52.198;9.902;2024-03-23T01:23:27;99946.03;;;7.93;100.00
17525;BME280;40431;52.198;9.902;2024-03-23T01:25:53;99940.53;;;7.95;100.00
17525;BME280;40431;52.198;9.902;2024-03-23T01:28:20;99934.09;;;7.97;100.00
17525;BME280;40431;52.198;9.902;2024-03-23T01:30:45;99933.50;;;7.92;100.00
17525;BME280;40431;52.198;9.902;2024-03-23T01:33:12;99931.69;;;7.93;100.00
17525;BME280;40431;52.198;9.902;2024-03-23T01:35:37;99926.44;;;7.90;100.00
17525;BME280;40431;52.198;9.902;2024-03-23T01:38:04;99916.03;;;7.83;100.00
17525;BME280;40431;52.198;9.902;2024-03-23T01:40:31;99920.75;;;7.80;100.00
17525;BME280;40431;52.198;9.902;2024-03-23T01:42:58;99920.84;;;7.78;100.00
17525;BME280;40431;52.198;9.902;2024-03-23T01:45:24;99921.78;;;7.77;100.00
17525;BME280;40431;52.198;9.902;2024-03-23T01:47:51;99925.28;;;7.79;100.00
17525;BME280;40431;52.198;9.902;2024-03-23T01:50:19;99917.94;;;7.81;100.00
17525;BME280;40431;52.198;9.902;2024-03-23T01:52:59;99911.59;;;7.82;100.00
17525;BME280;40431;52.198;9.902;2024-03-23T01:55:32;99906.28;;;7.81;100.00
17525;BME280;40431;52.198;9.902;2024-03-23T01:58:17;99901.09;;;7.78;100.00
17525;BME280;40431;52.198;9.902;2024-03-23T02:00:52;99893.94;;;7.77;100.00
17525;BME280;40431;52.198;9.902;2024-03-23T02:03:29;99890.19;;;7.79;100.00
17525;BME280;40431;52.198;9.902;2024-03-23T02:06:06;99891.16;;;7.78;100.00
17525;BME280;40431;52.198;9.902;2024-03-23T02:08:49;99894.53;;;7.82;100.00
17525;BME280;40431;52.198;9.902;2024-03-23T02:11:34;99885.56;;;7.81;100.00
17525;BME280;40431;52.198;9.902;2024-03-23T02:14:12;99882.09;;;7.79;100.00
17525;BME280;40431;52.198;9.902;2024-03-23T02:16:44;99870.50;;;7.77;100.00
17525;BME280;40431;52.198;9.902;2024-03-23T02:19:16;99867.81;;;7.77;100.00
17525;BME280;40431;52.198;9.902;2024-03-23T02:22:10;99863.47;;;7.75;100.00
17525;BME280;40431;52.198;9.902;2024-03-23T02:24:45;99870.41;;;7.79;100.00
17525;BME280;40431;52.198;9.902;2024-03-23T02:27:30;99868.00;;;7.74;100.00
17525;BME280;40431;52.198;9.902;2024-03-23T02:30:12;99857.91;;;7.78;100.00
17525;BME280;40431;52.198;9.902;2024-03-23T02:32:47;99854.22;;;7.79;100.00
17525;BME280;40431;52.198;9.902;2024-03-23T02:35:20;99854.22;;;7.79;100.00
17525;BME280;40431;52.198;9.902;2024-03-23T02:37:48;99848.06;;;7.77;100.00
17525;BME280;40431;52.198;9.902;2024-03-23T02:40:29;99841.63;;;7.79;100.00
17525;BME280;40431;52.198;9.902;2024-03-23T02:43:08;99846.91;;;7.81;100.00
17525;BME280;40431;52.198;9.902;2024-03-23T02:45:54;99847.66;;;7.83;100.00
17525;BME280;40431;52.198;9.902;2024-03-23T02:48:33;99837.88;;;7.82;100.00
17525;BME280;40431;52.198;9.902;2024-03-23T02:51:12;99830.41;;;7.85;100.00
17525;BME280;40431;52.198;9.902;2024-03-23T02:53:47;99825.13;;;7.84;100.00
17525;BME280;40431;52.198;9.902;2024-03-23T02:56:26;99829.66;;;7.83;100.00
17525;BME280;40431;52.198;9.902;2024-03-23T02:59:09;99831.78;;;7.78;100.00
17525;BME280;40431;52.198;9.902;2024-03-23T03:01:48;99823.09;;;7.73;100.00
17525;BME280;40431;52.198;9.902;2024-03-23T03:04:29;99818.19;;;7.80;100.00
17525;BME280;40431;52.198;9.902;2024-03-23T03:07:06;99810.38;;;7.75;100.00
17525;BME280;40431;52.198;9.902;2024-03-23T03:10:03;99810.19;;;7.78;100.00
17525;BME280;40431;52.198;9.902;2024-03-23T03:12:39;99817.50;;;7.76;100.00
17525;BME280;40431;52.198;9.902;2024-03-23T03:15:19;99797.84;;;7.74;100.00
17525;BME280;40431;52.198;9.902;2024-03-23T03:17:57;99806.53;;;7.79;100.00
17525;BME280;40431;52.198;9.902;2024-03-23T03:20:43;99801.28;;;7.76;100.00
17525;BME280;40431;52.198;9.902;2024-03-23T03:23:18;99805.84;;;7.76;100.00
17525;BME280;40431;52.198;9.902;2024-03-23T03:25:54;99803.59;;;7.68;100.00
17525;BME280;40431;52.198;9.902;2024-03-23T03:28:33;99802.56;;;7.71;100.00
17525;BME280;40431;52.198;9.902;2024-03-23T03:31:18;99798.22;;;7.68;100.00
17525;BME280;40431;52.198;9.902;2024-03-23T03:33:58;99807.47;;;7.64;100.00
17525;BME280;40431;52.198;9.902;2024-03-23T03:36:34;99808.72;;;7.58;100.00
17525;BME280;40431;52.198;9.902;2024-03-23T03:39:17;99811.41;;;7.58;100.00
17525;BME280;40431;52.198;9.902;2024-03-23T03:42:08;99804.81;;;7.48;100.00
17525;BME280;40431;52.198;9.902;2024-03-23T03:45:05;99807.88;;;7.42;100.00
17525;BME280;40431;52.198;9.902;2024-03-23T03:47:50;99806.22;;;7.39;100.00
17525;BME280;40431;52.198;9.902;2024-03-23T03:50:27;99806.22;;;7.39;100.00
17525;BME280;40431;52.198;9.902;2024-03-23T03:53:02;99807.38;;;7.35;100.00
17525;BME280;40431;52.198;9.902;2024-03-23T03:55:46;99791.94;;;7.23;100.00
17525;BME280;40431;52.198;9.902;2024-03-23T03:58:23;99796.63;;;7.19;100.00
17525;BME280;40431;52.198;9.902;2024-03-23T04:01:05;99799.41;;;7.17;100.00
17525;BME280;40431;52.198;9.902;2024-03-23T04:03:51;99787.78;;;7.17;100.00
17525;BME280;40431;52.198;9.902;2024-03-23T04:06:48;99781.69;;;7.13;100.00
17525;BME280;40431;52.198;9.902;2024-03-23T04:10:09;99791.13;;;7.06;100.00
17525;BME280;40431;52.198;9.902;2024-03-23T04:12:49;99789.91;;;6.96;100.00
17525;BME280;40431;52.198;9.902;2024-03-23T04:15:21;99792.63;;;6.80;100.00
17525;BME280;40431;52.198;9.902;2024-03-23T04:17:48;99779.88;;;6.67;100.00
17525;BME280;40431;52.198;9.902;2024-03-23T04:20:14;99779.94;;;6.66;100.00
17525;BME280;40431;52.198;9.902;2024-03-23T04:22:42;99776.66;;;6.61;100.00
17525;BME280;40431;52.198;9.902;2024-03-23T04:25:07;99771.69;;;6.69;100.00
17525;BME280;40431;52.198;9.902;2024-03-23T04:27:35;99771.50;;;6.72;100.00
17525;BME280;40431;52.198;9.902;2024-03-23T04:30:02;99776.19;;;6.68;100.00
17525;BME280;40431;52.198;9.902;2024-03-23T04:32:30;99775.53;;;6.65;100.00
17525;BME280;40431;52.198;9.902;2024-03-23T04:34:57;99765.59;;;6.65;100.00
17525;BME280;40431;52.198;9.902;2024-03-23T04:37:23;99766.66;;;6.63;100.00
17525;BME280;40431;52.198;9.902;2024-03-23T04:39:49;99748.94;;;6.59;100.00
17525;BME280;40431;52.198;9.902;2024-03-23T04:42:16;99759.59;;;6.60;100.00
17525;BME280;40431;52.198;9.902;2024-03-23T04:44:43;99754.13;;;6.62;100.00
17525;BME280;40431;52.198;9.902;2024-03-23T04:47:08;99748.94;;;6.59;100.00
17525;BME280;40431;52.198;9.902;2024-03-23T04:49:35;99750.66;;;6.60;100.00
17525;BME280;40431;52.198;9.902;2024-03-23T04:52:04;99751.19;;;6.66;100.00
17525;BME280;40431;52.198;9.902;2024-03-23T04:54:30;99743.97;;;6.67;100.00
17525;BME280;40431;52.198;9.902;2024-03-23T04:56:57;99750.56;;;6.61;100.00
17525;BME280;40431;52.198;9.902;2024-03-23T04:59:23;99738.50;;;6.52;100.00
17525;BME280;40431;52.198;9.902;2024-03-23T05:01:49;99740.94;;;6.41;100.00
17525;BME280;40431;52.198;9.902;2024-03-23T05:04:14;99740.94;;;6.41;100.00
17525;BME280;40431;52.198;9.902;2024-03-23T05:06:41;99743.03;;;6.36;100.00
17525;BME280;40431;52.198;9.902;2024-03-23T05:09:08;99736.94;;;6.32;100.00
17525;BME280;40431;52.198;9.902;2024-03-23T05:11:37;99736.78;;;6.35;100.00
17525;BME280;40431;52.198;9.902;2024-03-23T05:14:02;99735.72;;;6.38;100.00
17525;BME280;40431;52.198;9.902;2024-03-23T05:16:29;99740.00;;;6.42;100.00
17525;BME280;40431;52.198;9.902;2024-03-23T05:18:54;99729.03;;;6.45;100.00
17525;BME280;40431;52.198;9.902;2024-03-23T05:21:21;99729.22;;;6.42;100.00
17525;BME280;40431;52.198;9.902;2024-03-23T05:23:46;99726.34;;;6.45;100.00
17525;BME280;40431;52.198;9.902;2024-03-23T05:26:15;99715.38;;;6.48;100.00
17525;BME280;40431;52.198;9.902;2024-03-23T05:28:40;99713.50;;;6.50;100.00
17525;BME280;40431;52.198;9.902;2024-03-23T05:31:07;99722.53;;;6.49;100.00
17525;BME280;40431;52.198;9.902;2024-03-23T05:33:34;99728.69;;;6.51;100.00
17525;BME280;40431;52.198;9.902;2024-03-23T05:36:01;99744.06;;;6.49;100.00
17525;BME280;40431;52.198;9.902;2024-03-23T05:38:27;99743.97;;;6.51;100.00
17525;BME280;40431;52.198;9.902;2024-03-23T05:40:54;99746.66;;;6.51;100.00
17525;BME280;40431;52.198;9.902;2024-03-23T05:43:21;99746.16;;;6.44;100.00
17525;BME280;40431;52.198;9.902;2024-03-23T05:45:53;99744.59;;;6.40;100.00
17525;BME280;40431;52.198;9.902;2024-03-23T05:48:18;99741.09;;;6.38;100.00
17525;BME280;40431;52.198;9.902;2024-03-23T05:50:45;99740.44;;;6.34;100.00
17525;BME280;40431;52.198;9.902;2024-03-23T05:53:10;99735.03;;;6.18;100.00
17525;BME280;40431;52.198;9.902;2024-03-23T05:55:38;99733.63;;;6.11;100.00
17525;BME280;40431;52.198;9.902;2024-03-23T05:58:03;99733.47;;;5.98;100.00
17525;BME280;40431;52.198;9.902;2024-03-23T06:00:31;99731.47;;;5.84;100.00
17525;BME280;40431;52.198;9.902;2024-03-23T06:02:57;99742.56;;;5.78;100.00
17525;BME280;40431;52.198;9.902;2024-03-23T06:05:24;99734.22;;;5.67;100.00
17525;BME280;40431;52.198;9.902;2024-03-23T06:07:49;99736.13;;;5.65;100.00
17525;BME280;40431;52.198;9.902;2024-03-23T06:10:16;99730.91;;;5.62;100.00
17525;BME280;40431;52.198;9.902;2024-03-23T06:12:41;99728.53;;;5.56;100.00
17525;BME280;40431;52.198;9.902;2024-03-23T06:15:09;99722.38;;;5.54;100.00
17525;BME280;40431;52.198;9.902;2024-03-23T06:17:37;99731.09;;;5.59;100.00
17525;BME280;40431;52.198;9.902;2024-03-23T06:20:04;99725.53;;;5.62;100.00
17525;BME280;40431;52.198;9.902;2024-03-23T06:22:31;99737.84;;;5.66;100.00
17525;BME280;40431;52.198;9.902;2024-03-23T06:24:58;99736.81;;;5.68;100.00
17525;BME280;40431;52.198;9.902;2024-03-23T06:27:24;99736.66;;;5.72;100.00
17525;BME280;40431;52.198;9.902;2024-03-23T06:29:51;99727.22;;;5.80;100.00
17525;BME280;40431;52.198;9.902;2024-03-23T06:32:16;99724.88;;;5.90;100.00
17525;BME280;40431;52.198;9.902;2024-03-23T06:34:44;99727.19;;;5.98;100.00
17525;BME280;40431;52.198;9.902;2024-03-23T06:37:11;99735.31;;;5.96;100.00
17525;BME280;40431;52.198;9.902;2024-03-23T06:39:38;99735.88;;;6.03;100.00
17525;BME280;40431;52.198;9.902;2024-03-23T06:42:04;99739.19;;;6.08;100.00
17525;BME280;40431;52.198;9.902;2024-03-23T06:44:31;99740.03;;;6.09;100.00
17525;BME280;40431;52.198;9.902;2024-03-23T06:46:57;99736.50;;;6.08;100.00
17525;BME280;40431;52.198;9.902;2024-03-23T06:49:23;99735.88;;;6.03;100.00
17525;BME280;40431;52.198;9.902;2024-03-23T06:51:51;99736.59;;;6.07;100.00
17525;BME280;40431;52.198;9.902;2024-03-23T06:54:18;99739.19;;;6.08;100.00
17525;BME280;40431;52.198;9.902;2024-03-23T06:56:44;99740.75;;;6.12;100.00
17525;BME280;40431;52.198;9.902;2024-03-23T06:59:10;99734.44;;;6.13;100.00
17525;BME280;40431;52.198;9.902;2024-03-23T07:01:36;99723.91;;;6.09;100.00
17525;BME280;40431;52.198;9.902;2024-03-23T07:04:03;99726.53;;;6.10;100.00
17525;BME280;40431;52.198;9.902;2024-03-23T07:06:29;99733.47;;;6.14;100.00
17525;BME280;40431;52.198;9.902;2024-03-23T07:08:57;99737.97;;;6.14;100.00
17525;BME280;40431;52.198;9.902;2024-03-23T07:11:23;99744.25;;;6.14;100.00
17525;BME280;40431;52.198;9.902;2024-03-23T07:13:50;99744.56;;;6.08;100.00
17525;BME280;40431;52.198;9.902;2024-03-23T07:16:16;99741.78;;;6.10;100.00
17525;BME280;40431;52.198;9.902;2024-03-23T07:18:42;99733.47;;;6.14;100.00
17525;BME280;40431;52.198;9.902;2024-03-23T07:21:08;99727.13;;;6.15;100.00
17525;BME280;40431;52.198;9.902;2024-03-23T07:23:35;99726.16;;;6.16;100.00
17525;BME280;40431;52.198;9.902;2024-03-23T07:26:02;99732.25;;;6.20;100.00
17525;BME280;40431;52.198;9.902;2024-03-23T07:28:30;99738.34;;;6.24;100.00
17525;BME280;40431;52.198;9.902;2024-03-23T07:31:04;99727.56;;;6.24;100.00
17525;BME280;40431;52.198;9.902;2024-03-23T07:33:31;99733.63;;;6.27;100.00
17525;BME280;40431;52.198;9.902;2024-03-23T07:35:57;99751.28;;;6.33;100.00
17525;BME280;40431;52.198;9.902;2024-03-23T07:38:24;99742.41;;;6.31;100.00
17525;BME280;40431;52.198;9.902;2024-03-23T07:40:49;99745.44;;;6.41;100.00
17525;BME280;40431;52.198;9.902;2024-03-23T07:43:21;99752.44;;;6.45;100.00
17525;BME280;40431;52.198;9.902;2024-03-23T07:45:51;99749.88;;;6.42;100.00
17525;BME280;40431;52.198;9.902;2024-03-23T07:48:18;99749.78;;;6.43;100.00
17525;BME280;40431;52.198;9.902;2024-03-23T07:50:43;99744.41;;;6.43;100.00
17525;BME280;40431;52.198;9.902;2024-03-23T07:53:10;99742.59;;;6.44;100.00
17525;BME280;40431;52.198;9.902;2024-03-23T07:55:37;99748.75;;;6.46;100.00
17525;BME280;40431;52.198;9.902;2024-03-23T07:58:05;99739.13;;;6.42;100.00
17525;BME280;40431;52.198;9.902;2024-03-23T08:00:47;99740.16;;;6.39;100.00
17525;BME280;40431;52.198;9.902;2024-03-23T08:03:16;99731.03;;;6.42;100.00
17525;BME280;40431;52.198;9.902;2024-03-23T08:05:43;99745.00;;;6.48;100.00
17525;BME280;40431;52.198;9.902;2024-03-23T08:08:14;99744.25;;;6.46;100.00
17525;BME280;40431;52.198;9.902;2024-03-23T08:10:51;99740.56;;;6.47;100.00
17525;BME280;40431;52.198;9.902;2024-03-23T08:13:19;99735.38;;;6.44;100.00
17525;BME280;40431;52.198;9.902;2024-03-23T08:15:55;99742.69;;;6.42;100.00
17525;BME280;40431;52.198;9.902;2024-03-23T08:18:27;99727.56;;;6.24;100.00
17525;BME280;40431;52.198;9.902;2024-03-23T08:20:57;99726.03;;;6.20;100.00
17525;BME280;40431;52.198;9.902;2024-03-23T08:23:27;99732.44;;;6.17;100.00
17525;BME280;40431;52.198;9.902;2024-03-23T08:26:11;99732.78;;;6.27;100.00
17525;BME280;40431;52.198;9.902;2024-03-23T08:28:52;99734.84;;;6.38;100.00
17525;BME280;40431;52.198;9.902;2024-03-23T08:31:25;99739.81;;;6.45;100.00
17525;BME280;40431;52.198;9.902;2024-03-23T08:34:00;99744.06;;;6.49;100.00
17525;BME280;40431;52.198;9.902;2024-03-23T08:36:37;99744.41;;;6.59;100.00
17525;BME280;40431;52.198;9.902;2024-03-23T08:39:11;99753.78;;;6.68;100.00
17525;BME280;40431;52.198;9.902;2024-03-23T08:41:46;99747.59;;;6.66;100.00
17525;BME280;40431;52.198;9.902;2024-03-23T08:44:25;99745.78;;;6.66;100.00
17525;BME280;40431;52.198;9.902;2024-03-23T08:47:04;99746.50;;;6.70;100.00
17525;BME280;40431;52.198;9.902;2024-03-23T08:49:45;99746.66;;;6.67;100.00
17525;BME280;40431;52.198;9.902;2024-03-23T08:52:18;99737.81;;;6.65;100.00
17525;BME280;40431;52.198;9.902;2024-03-23T08:54:52;99751.50;;;6.76;100.00
17525;BME280;40431;52.198;9.902;2024-03-23T08:57:24;99750.88;;;6.87;100.00
17525;BME280;40431;52.198;9.902;2024-03-23T09:00:33;99757.75;;;6.93;100.00
17525;BME280;40431;52.198;9.902;2024-03-23T09:03:06;99749.03;;;7.04;100.00
17525;BME280;40431;52.198;9.902;2024-03-23T09:05:45;99754.72;;;7.13;100.00
17525;BME280;40431;52.198;9.902;2024-03-23T09:08:16;99762.81;;;7.13;100.00
17525;BME280;40431;52.198;9.902;2024-03-23T09:10:49;99754.19;;;7.23;100.00
17525;BME280;40431;52.198;9.902;2024-03-23T09:13:16;99756.63;;;7.27;100.00
17525;BME280;40431;52.198;9.902;2024-03-23T09:15:47;99749.97;;;7.33;100.00
17525;BME280;40431;52.198;9.902;2024-03-23T09:18:18;99736.75;;;7.28;100.00
17525;BME280;40431;52.198;9.902;2024-03-23T09:20:48;99736.66;;;7.15;100.00
17525;BME280;40431;52.198;9.902;2024-03-23T09:23:16;99742.09;;;6.99;100.00
17525;BME280;40431;52.198;9.902;2024-03-23T09:25:44;99747.53;;;6.98;100.00
17525;BME280;40431;52.198;9.902;2024-03-23T09:28:12;99748.34;;;7.00;100.00
17525;BME280;40431;52.198;9.902;2024-03-23T09:30:43;99755.22;;;6.90;100.00
17525;BME280;40431;52.198;9.902;2024-03-23T09:33:10;99750.34;;;6.96;100.00
17525;BME280;40431;52.198;9.902;2024-03-23T09:35:41;99763.28;;;7.06;100.00
17525;BME280;40431;52.198;9.902;2024-03-23T09:38:12;99754.38;;;7.19;100.00
17525;BME280;40431;52.198;9.902;2024-03-23T09:40:45;99762.81;;;7.44;100.00
17525;BME280;40431;52.198;9.902;2024-03-23T09:43:15;99757.34;;;7.60;100.00
17525;BME280;40431;52.198;9.902;2024-03-23T09:45:45;99751.38;;;7.69;100.00
17525;BME280;40431;52.198;9.902;2024-03-23T09:48:13;99752.91;;;7.73;100.00
17525;BME280;40431;52.198;9.902;2024-03-23T09:50:43;99748.88;;;7.66;100.00
17525;BME280;40431;52.198;9.902;2024-03-23T09:53:15;99740.97;;;7.63;100.00
17525;BME280;40431;52.198;9.902;2024-03-23T09:55:51;99741.34;;;7.57;100.00
17525;BME280;40431;52.198;9.902;2024-03-23T09:58:19;99741.91;;;7.47;100.00
17525;BME280;40431;52.198;9.902;2024-03-23T10:00:47;99749.41;;;7.42;100.00
17525;BME280;40431;52.198;9.902;2024-03-23T10:03:15;99738.25;;;7.34;100.00
17525;BME280;40431;52.198;9.902;2024-03-23T10:05:45;99741.09;;;7.31;100.00
17525;BME280;40431;52.198;9.902;2024-03-23T10:08:19;99735.91;;;7.28;100.00
17525;BME280;40431;52.198;9.902;2024-03-23T10:10:47;99730.72;;;7.25;100.00
17525;BME280;40431;52.198;9.902;2024-03-23T10:13:27;99738.81;;;7.39;100.00
17525;BME280;40431;52.198;9.902;2024-03-23T10:15:58;99734.22;;;7.56;100.00
17525;BME280;40431;52.198;9.902;2024-03-23T10:18:26;99728.63;;;7.73;100.00
17525;BME280;40431;52.198;9.902;2024-03-23T10:21:09;99732.50;;;7.83;100.00
17525;BME280;40431;52.198;9.902;2024-03-23T10:23:38;99720.34;;;7.76;100.00
17525;BME280;40431;52.198;9.902;2024-03-23T10:26:14;99714.06;;;7.61;100.00
17525;BME280;40431;52.198;9.902;2024-03-23T10:28:58;99700.41;;;7.50;100.00
17525;BME280;40431;52.198;9.902;2024-03-23T10:31:36;99701.63;;;7.44;100.00
17525;BME280;40431;52.198;9.902;2024-03-23T10:34:03;99714.19;;;7.60;100.00
17525;BME280;40431;52.198;9.902;2024-03-23T10:36:34;99706.78;;;7.78;100.00
17525;BME280;40431;52.198;9.902;2024-03-23T10:39:07;99711.84;;;7.97;100.00
17525;BME280;40431;52.198;9.902;2024-03-23T10:41:37;99708.09;;;8.14;100.00
17525;BME280;40431;52.198;9.902;2024-03-23T10:44:09;99701.88;;;8.26;100.00
17525;BME280;40431;52.198;9.902;2024-03-23T10:46:42;99709.06;;;8.40;100.00
17525;BME280;40431;52.198;9.902;2024-03-23T10:49:19;99709.63;;;8.60;100.00
17525;BME280;40431;52.198;9.902;2024-03-23T10:51:53;99693.84;;;8.54;100.00
17525;BME280;40431;52.198;9.902;2024-03-23T10:54:22;99703.03;;;8.64;100.00
17525;BME280;40431;52.198;9.902;2024-03-23T10:56:54;99716.63;;;8.35;100.00
17525;BME280;40431;52.198;9.902;2024-03-23T10:59:26;99705.31;;;7.72;99.76
17525;BME280;40431;52.198;9.902;2024-03-23T11:01:58;99706.06;;;7.45;98.14
17525;BME280;40431;52.198;9.902;2024-03-23T11:04:34;99701.03;;;7.39;95.27
17525;BME280;40431;52.198;9.902;2024-03-23T11:07:02;99708.97;;;7.42;97.16
17525;BME280;40431;52.198;9.902;2024-03-23T11:09:41;99694.41;;;7.45;94.03
17525;BME280;40431;52.198;9.902;2024-03-23T11:12:27;99704.66;;;7.54;96.48
17525;BME280;40431;52.198;9.902;2024-03-23T11:15:00;99701.44;;;7.76;100.00
17525;BME280;40431;52.198;9.902;2024-03-23T11:17:28;99699.31;;;7.96;100.00
17525;BME280;40431;52.198;9.902;2024-03-23T11:19:57;99703.06;;;8.08;100.00
17525;BME280;40431;52.198;9.902;2024-03-23T11:22:46;99694.38;;;8.17;100.00
17525;BME280;40431;52.198;9.902;2024-03-23T11:25:17;99697.34;;;8.27;100.00
17525;BME280;40431;52.198;9.902;2024-03-23T11:27:47;99695.28;;;8.45;100.00
17525;BME280;40431;52.198;9.902;2024-03-23T11:30:17;99685.91;;;8.50;100.00
17525;BME280;40431;52.198;9.902;2024-03-23T11:32:58;99694.97;;;8.49;100.00
17525;BME280;40431;52.198;9.902;2024-03-23T11:35:29;99704.16;;;8.47;100.00
17525;BME280;40431;52.198;9.902;2024-03-23T11:38:12;99701.84;;;8.41;100.00
17525;BME280;40431;52.198;9.902;2024-03-23T11:40:54;99709.75;;;8.44;96.06
17525;BME280;40431;52.198;9.902;2024-03-23T11:43:23;99714.44;;;8.27;100.00
17525;BME280;40431;52.198;9.902;2024-03-23T11:45:54;99696.34;;;8.00;100.00
17525;BME280;40431;52.198;9.902;2024-03-23T11:48:30;99704.06;;;7.78;100.00
17525;BME280;40431;52.198;9.902;2024-03-23T11:51:01;99704.06;;;7.78;100.00
17525;BME280;40431;52.198;9.902;2024-03-23T11:53:30;99692.38;;;7.77;100.00
17525;BME280;40431;52.198;9.902;2024-03-23T11:55:59;99696.16;;;7.75;100.00
17525;BME280;40431;52.198;9.902;2024-03-23T11:58:27;99703.78;;;7.82;100.00
17525;BME280;40431;52.198;9.902;2024-03-23T12:00:56;99699.69;;;7.90;100.00
17525;BME280;40431;52.198;9.902;2024-03-23T12:03:24;99705.56;;;7.96;100.00
17525;BME280;40431;52.198;9.902;2024-03-23T12:05:59;99698.13;;;8.14;100.00
17525;BME280;40431;52.198;9.902;2024-03-23T12:08:32;99696.09;;;8.32;100.00
17525;BME280;40431;52.198;9.902;2024-03-23T12:11:08;99683.16;;;8.38;100.00
17525;BME280;40431;52.198;9.902;2024-03-23T12:13:59;99688.63;;;8.36;100.00
17525;BME280;40431;52.198;9.902;2024-03-23T12:16:34;99717.41;;;8.23;100.00
17525;BME280;40431;52.198;9.902;2024-03-23T12:19:05;99746.56;;;7.74;100.00
17525;BME280;40431;52.198;9.902;2024-03-23T12:21:34;99748.19;;;6.87;100.00
17525;BME280;40431;52.198;9.902;2024-03-23T12:24:31;99735.03;;;6.34;100.00
17525;BME280;40431;52.198;9.902;2024-03-23T12:27:23;99731.03;;;6.10;100.00
17525;BME280;40431;52.198;9.902;2024-03-23T12:30:01;99724.56;;;5.96;100.00
17525;BME280;40431;52.198;9.902;2024-03-23T12:32:28;99726.94;;;6.03;100.00
17525;BME280;40431;52.198;9.902;2024-03-23T12:34:58;99727.38;;;6.11;100.00
17525;BME280;40431;52.198;9.902;2024-03-23T12:37:34;99725.94;;;6.37;100.00
17525;BME280;40431;52.198;9.902;2024-03-23T12:40:09;99724.59;;;6.44;100.00
17525;BME280;40431;52.198;9.902;2024-03-23T12:42:37;99729.66;;;6.50;100.00
17525;BME280;40431;52.198;9.902;2024-03-23T12:45:07;99734.66;;;6.57;100.00
17525;BME280;40431;52.198;9.902;2024-03-23T12:47:35;99739.00;;;6.59;100.00
17525;BME280;40431;52.198;9.902;2024-03-23T12:50:03;99742.31;;;6.64;100.00
17525;BME280;40431;52.198;9.902;2024-03-23T12:52:32;99743.34;;;6.62;100.00
17525;BME280;40431;52.198;9.902;2024-03-23T12:55:05;99737.19;;;6.60;100.00
17525;BME280;40431;52.198;9.902;2024-03-23T12:57:35;99757.97;;;6.58;100.00
17525;BME280;40431;52.198;9.902;2024-03-23T13:00:04;99774.72;;;6.47;100.00
17525;BME280;40431;52.198;9.902;2024-03-23T13:02:32;99795.34;;;5.81;100.00
17525;BME280;40431;52.198;9.902;2024-03-23T13:05:00;99801.16;;;5.56;100.00
17525;BME280;40431;52.198;9.902;2024-03-23T13:07:27;99776.88;;;5.22;100.00
17525;BME280;40431;52.198;9.902;2024-03-23T13:09:53;99752.31;;;5.12;100.00
17525;BME280;40431;52.198;9.902;2024-03-23T13:12:21;99736.00;;;5.33;100.00
17525;BME280;40431;52.198;9.902;2024-03-23T13:14:48;99729.19;;;5.43;100.00
17525;BME280;40431;52.198;9.902;2024-03-23T13:17:15;99734.41;;;5.64;100.00
17525;BME280;40431;52.198;9.902;2024-03-23T13:19:41;99734.44;;;5.80;100.00
17525;BME280;40431;52.198;9.902;2024-03-23T13:22:07;99736.19;;;5.97;100.00
17525;BME280;40431;52.198;9.902;2024-03-23T13:24:33;99735.81;;;6.21;100.00
17525;BME280;40431;52.198;9.902;2024-03-23T13:27:00;99733.03;;;6.38;100.00
17525;BME280;40431;52.198;9.902;2024-03-23T13:29:25;99734.25;;;6.48;100.00
17525;BME280;40431;52.198;9.902;2024-03-23T13:31:53;99736.59;;;6.55;100.00
17525;BME280;40431;52.198;9.902;2024-03-23T13:34:19;99725.47;;;6.61;100.00
17525;BME280;40431;52.198;9.902;2024-03-23T13:36:46;99723.34;;;6.66;100.00
17525;BME280;40431;52.198;9.902;2024-03-23T13:39:13;99734.06;;;6.67;100.00
17525;BME280;40431;52.198;9.902;2024-03-23T13:41:41;99737.19;;;6.76;100.00
17525;BME280;40431;52.198;9.902;2024-03-23T13:44:08;99727.53;;;6.72;100.00
17525;BME280;40431;52.198;9.902;2024-03-23T13:46:35;99729.84;;;6.78;100.00
17525;BME280;40431;52.198;9.902;2024-03-23T13:49:02;99721.94;;;6.91;100.00
17525;BME280;40431;52.198;9.902;2024-03-23T13:51:29;99728.63;;;7.14;100.00
17525;BME280;40431;52.198;9.902;2024-03-23T13:53:55;99736.09;;;7.25;100.00
17525;BME280;40431;52.198;9.902;2024-03-23T13:56:23;99740.00;;;7.19;100.00
17525;BME280;40431;52.198;9.902;2024-03-23T13:58:51;99735.13;;;7.26;100.00
17525;BME280;40431;52.198;9.902;2024-03-23T14:01:24;99738.31;;;7.32;100.00
17525;BME280;40431;52.198;9.902;2024-03-23T14:04:17;99739.00;;;7.36;100.00
17525;BME280;40431;52.198;9.902;2024-03-23T14:07:05;99744.03;;;7.42;100.00
17525;BME280;40431;52.198;9.902;2024-03-23T14:09:34;99736.69;;;7.44;100.00
17525;BME280;40431;52.198;9.902;2024-03-23T14:12:02;99734.09;;;7.43;100.00
17525;BME280;40431;52.198;9.902;2024-03-23T14:14:29;99752.28;;;7.39;100.00
17525;BME280;40431;52.198;9.902;2024-03-23T14:16:57;99756.06;;;7.37;100.00
17525;BME280;40431;52.198;9.902;2024-03-23T14:19:26;99757.84;;;7.22;100.00